createdAt,value
2022-11-01T00:02:01.403Z,15.11
2022-11-01T00:04:29.213Z,15.08
2022-11-01T00:06:56.791Z,15.01
2022-11-01T00:09:24.782Z,14.88
2022-11-01T00:11:52.452Z,14.87
2022-11-01T00:14:20.451Z,14.79
2022-11-01T00:16:48.895Z,14.72
2022-11-01T00:19:16.703Z,14.83
2022-11-01T00:21:44.737Z,14.87
2022-11-01T00:24:12.730Z,14.92
2022-11-01T00:26:41.228Z,14.88
2022-11-01T00:29:08.948Z,14.88
2022-11-01T00:31:36.488Z,14.95
2022-11-01T00:34:06.146Z,14.94
2022-11-01T00:36:35.513Z,14.87
2022-11-01T00:39:04.156Z,14.90
2022-11-01T00:41:32.170Z,14.91
2022-11-01T00:44:00.033Z,14.94
2022-11-01T00:46:27.986Z,14.83
2022-11-01T00:48:55.460Z,14.83
2022-11-01T00:51:23.401Z,14.81
2022-11-01T00:53:50.959Z,14.70
2022-11-01T00:56:18.682Z,14.71
2022-11-01T00:58:46.542Z,14.74
2022-11-01T01:01:14.197Z,14.78
2022-11-01T01:03:41.854Z,14.73
2022-11-01T01:06:09.825Z,14.66
2022-11-01T01:08:37.756Z,14.69
2022-11-01T01:11:05.707Z,14.69
2022-11-01T01:13:33.664Z,14.60
2022-11-01T01:16:01.229Z,14.55
2022-11-01T01:18:28.675Z,14.53
2022-11-01T01:21:04.599Z,14.57
2022-11-01T01:23:32.720Z,14.55
2022-11-01T01:26:05.739Z,14.64
2022-11-01T01:28:33.313Z,14.59
2022-11-01T01:31:00.848Z,14.54
2022-11-01T01:33:28.634Z,14.47
2022-11-01T01:35:56.205Z,14.51
2022-11-01T01:38:23.960Z,14.50
2022-11-01T01:40:51.495Z,14.45
2022-11-01T01:43:18.946Z,14.40
2022-11-01T01:45:46.487Z,14.30
2022-11-01T01:48:27.525Z,14.31
2022-11-01T01:51:00.800Z,14.25
2022-11-01T01:53:38.715Z,14.28
2022-11-01T01:56:18.300Z,14.20
2022-11-01T01:59:01.350Z,14.25
2022-11-01T02:01:29.908Z,14.22
2022-11-01T02:04:03.662Z,14.23
2022-11-01T02:06:33.404Z,14.17
2022-11-01T02:09:04.127Z,14.22
2022-11-01T02:11:32.033Z,14.24
2022-11-01T02:14:00.854Z,14.28
2022-11-01T02:16:34.453Z,14.14
2022-11-01T02:19:39.297Z,14.15
2022-11-01T02:22:10.233Z,14.11
2022-11-01T02:24:46.674Z,14.13
2022-11-01T02:27:20.581Z,13.98
2022-11-01T02:30:06.650Z,14.02
2022-11-01T02:32:46.067Z,14.00
2022-11-01T02:35:25.387Z,13.95
2022-11-01T02:38:14.527Z,13.91
2022-11-01T02:40:48.178Z,13.92
2022-11-01T02:43:21.559Z,13.94
2022-11-01T02:45:50.815Z,13.96
2022-11-01T02:48:21.797Z,13.94
2022-11-01T02:50:56.413Z,13.91
2022-11-01T02:53:23.997Z,13.80
2022-11-01T02:55:53.584Z,13.78
2022-11-01T02:58:29.101Z,13.78
2022-11-01T03:00:57.202Z,13.80
2022-11-01T03:03:32.521Z,13.83
2022-11-01T03:06:00.424Z,13.80
2022-11-01T03:08:57.790Z,13.71
2022-11-01T03:11:58.527Z,13.53
2022-11-01T03:14:59.944Z,13.53
2022-11-01T03:17:39.735Z,13.53
2022-11-01T03:20:23.197Z,13.54
2022-11-01T03:22:56.754Z,13.56
2022-11-01T03:25:41.819Z,13.56
2022-11-01T03:28:19.268Z,13.61
2022-11-01T03:30:53.586Z,13.63
2022-11-01T03:33:23.274Z,13.51
2022-11-01T03:35:54.519Z,13.53
2022-11-01T03:38:26.975Z,13.49
2022-11-01T03:41:01.238Z,13.42
2022-11-01T03:43:31.501Z,13.47
2022-11-01T03:45:59.172Z,13.51
2022-11-01T03:48:26.825Z,13.48
2022-11-01T03:50:58.626Z,13.40
2022-11-01T03:53:26.651Z,13.22
2022-11-01T03:55:54.814Z,13.15
2022-11-01T03:58:22.817Z,13.17
2022-11-01T04:00:51.020Z,13.23
2022-11-01T04:03:18.970Z,13.26
2022-11-01T04:05:46.959Z,13.34
2022-11-01T04:08:14.729Z,13.32
2022-11-01T04:10:44.653Z,13.37
2022-11-01T04:13:13.747Z,13.35
2022-11-01T04:16:00.982Z,13.27
2022-11-01T04:18:46.995Z,13.29
2022-11-01T04:21:18.671Z,13.40
2022-11-01T04:23:47.233Z,13.29
2022-11-01T04:26:17.707Z,13.18
2022-11-01T04:28:57.061Z,13.08
2022-11-01T04:31:37.171Z,13.01
2022-11-01T04:34:05.721Z,13.12
2022-11-01T04:36:33.940Z,13.08
2022-11-01T04:39:01.526Z,12.91
2022-11-01T04:41:30.504Z,12.91
2022-11-01T04:43:59.225Z,13.01
2022-11-01T04:46:30.747Z,13.06
2022-11-01T04:48:58.754Z,13.19
2022-11-01T04:51:26.326Z,13.19
2022-11-01T04:53:54.310Z,13.27
2022-11-01T04:56:22.518Z,13.25
2022-11-01T04:58:50.914Z,13.30
2022-11-01T05:01:18.555Z,13.27
2022-11-01T05:03:48.234Z,13.33
2022-11-01T05:06:16.215Z,13.25
2022-11-01T05:08:44.176Z,13.27
2022-11-01T05:11:12.649Z,13.25
2022-11-01T05:13:40.143Z,13.20
2022-11-01T05:16:19.475Z,13.15
2022-11-01T05:18:48.456Z,13.17
2022-11-01T05:21:16.969Z,13.13
2022-11-01T05:23:44.454Z,13.16
2022-11-01T05:26:12.463Z,13.05
2022-11-01T05:28:39.935Z,12.99
2022-11-01T05:31:07.933Z,13.08
2022-11-01T05:33:35.559Z,13.11
2022-11-01T05:36:03.161Z,13.14
2022-11-01T05:38:31.154Z,13.16
2022-11-01T05:41:01.808Z,13.20
2022-11-01T05:43:29.297Z,13.20
2022-11-01T05:45:57.235Z,13.27
2022-11-01T05:48:24.803Z,13.13
2022-11-01T05:50:52.383Z,13.12
2022-11-01T05:53:20.955Z,13.11
2022-11-01T05:55:48.540Z,13.08
2022-11-01T05:58:16.036Z,13.19
2022-11-01T06:00:43.970Z,13.27
2022-11-01T06:03:11.482Z,13.37
2022-11-01T06:05:39.710Z,13.38
2022-11-01T06:08:07.650Z,13.41
2022-11-01T06:10:35.561Z,13.41
2022-11-01T06:13:03.344Z,13.63
2022-11-01T06:15:34.305Z,13.71
2022-11-01T06:18:05.854Z,13.91
2022-11-01T06:20:34.674Z,13.89
2022-11-01T06:23:08.440Z,14.06
2022-11-01T06:25:36.617Z,14.07
2022-11-01T06:28:04.682Z,14.13
2022-11-01T06:30:32.672Z,14.25
2022-11-01T06:33:01.534Z,14.39
2022-11-01T06:35:29.373Z,14.45
2022-11-01T06:38:02.669Z,14.59
2022-11-01T06:40:30.742Z,14.72
2022-11-01T06:43:02.846Z,14.73
2022-11-01T06:45:32.222Z,14.99
2022-11-01T06:48:00.033Z,15.27
2022-11-01T06:50:28.159Z,15.44
2022-11-01T06:52:58.465Z,15.54
2022-11-01T06:55:27.451Z,15.78
2022-11-01T06:58:00.668Z,15.94
2022-11-01T07:00:29.786Z,16.06
2022-11-01T07:03:01.725Z,16.31
2022-11-01T07:05:34.404Z,16.33
2022-11-01T07:08:09.585Z,16.67
2022-11-01T07:10:39.122Z,16.98
2022-11-01T07:13:09.385Z,17.21
2022-11-01T07:15:37.432Z,17.43
2022-11-01T07:18:08.324Z,17.59
2022-11-01T07:20:41.675Z,17.72
2022-11-01T07:23:16.082Z,17.73
2022-11-01T07:25:44.410Z,17.69
2022-11-01T07:28:12.140Z,17.86
2022-11-01T07:30:40.380Z,17.80
2022-11-01T07:33:07.966Z,17.83
2022-11-01T07:35:36.003Z,17.41
2022-11-01T07:38:06.500Z,17.50
2022-11-01T07:40:39.527Z,17.71
2022-11-01T07:43:07.722Z,17.66
2022-11-01T07:45:36.280Z,17.79
2022-11-01T07:48:10.598Z,18.03
2022-11-01T07:50:40.341Z,18.05
2022-11-01T07:53:19.492Z,17.89
2022-11-01T07:55:47.685Z,17.97
2022-11-01T07:58:16.374Z,17.92
2022-11-01T08:00:44.962Z,18.08
2022-11-01T08:03:17.715Z,17.67
2022-11-01T08:05:46.908Z,17.86
2022-11-01T08:08:16.157Z,17.72
2022-11-01T08:10:43.927Z,17.75
2022-11-01T08:13:22.957Z,17.49
2022-11-01T08:15:52.352Z,17.81
2022-11-01T08:18:24.590Z,17.78
2022-11-01T08:20:52.965Z,17.66
2022-11-01T08:23:20.917Z,17.67
2022-11-01T08:25:48.506Z,17.70
2022-11-01T08:28:20.431Z,18.00
2022-11-01T08:30:49.697Z,18.08
2022-11-01T08:33:17.705Z,18.21
2022-11-01T08:35:50.166Z,18.47
2022-11-01T08:38:19.062Z,17.93
2022-11-01T08:40:47.111Z,17.76
2022-11-01T08:43:14.740Z,17.35
2022-11-01T08:45:42.722Z,17.62
2022-11-01T08:48:11.198Z,17.34
2022-11-01T08:50:39.311Z,17.27
2022-11-01T08:53:13.097Z,17.43
2022-11-01T08:55:41.756Z,17.69
2022-11-01T08:58:09.670Z,17.86
2022-11-01T09:00:37.725Z,17.79
2022-11-01T09:03:05.792Z,18.30
2022-11-01T09:05:33.537Z,18.62
2022-11-01T09:08:02.474Z,19.14
2022-11-01T09:10:30.979Z,19.49
2022-11-01T09:13:01.022Z,19.28
2022-11-01T09:15:30.108Z,19.46
2022-11-01T09:17:57.655Z,19.36
2022-11-01T09:20:26.535Z,20.00
2022-11-01T09:22:54.014Z,20.60
2022-11-01T09:25:21.559Z,20.32
2022-11-01T09:27:49.091Z,20.81
2022-11-01T09:30:16.665Z,20.60
2022-11-01T09:32:45.137Z,20.71
2022-11-01T09:35:13.204Z,21.16
2022-11-01T09:37:41.155Z,20.97
2022-11-01T09:40:10.517Z,21.05
2022-11-01T09:42:42.621Z,20.69
2022-11-01T09:45:23.750Z,20.08
2022-11-01T09:47:55.022Z,20.36
2022-11-01T09:50:27.546Z,20.30
2022-11-01T09:52:56.617Z,20.39
2022-11-01T09:55:54.610Z,20.58
2022-11-01T09:58:35.315Z,21.08
2022-11-01T10:01:19.812Z,21.36
2022-11-01T10:04:02.473Z,21.15
2022-11-01T10:06:54.157Z,20.73
2022-11-01T10:09:40.273Z,20.87
2022-11-01T10:12:26.586Z,20.88
2022-11-01T10:14:56.975Z,21.05
2022-11-01T10:17:49.410Z,21.10
2022-11-01T10:20:24.607Z,21.05
2022-11-01T10:22:52.268Z,20.93
2022-11-01T10:25:19.817Z,20.82
2022-11-01T10:27:56.577Z,20.73
2022-11-01T10:30:25.970Z,20.77
2022-11-01T10:33:03.580Z,20.76
2022-11-01T10:35:38.905Z,20.79
2022-11-01T10:38:41.539Z,20.61
2022-11-01T10:41:10.137Z,20.85
2022-11-01T10:43:44.660Z,20.83
2022-11-01T10:46:20.485Z,21.02
2022-11-01T10:48:58.713Z,20.93
2022-11-01T10:51:30.530Z,20.77
2022-11-01T10:54:03.588Z,20.86
2022-11-01T10:56:36.715Z,20.37
2022-11-01T10:59:18.064Z,20.86
2022-11-01T11:01:47.997Z,20.92
2022-11-01T11:04:20.348Z,21.08
2022-11-01T11:06:48.740Z,20.60
2022-11-01T11:09:28.288Z,20.94
2022-11-01T11:12:02.022Z,21.34
2022-11-01T11:14:33.065Z,21.05
2022-11-01T11:17:03.034Z,21.03
2022-11-01T11:19:30.809Z,21.06
2022-11-01T11:22:00.007Z,20.98
2022-11-01T11:24:39.705Z,21.18
2022-11-01T11:27:22.399Z,21.39
2022-11-01T11:29:53.715Z,21.61
2022-11-01T11:32:32.164Z,21.49
2022-11-01T11:35:04.123Z,20.72
2022-11-01T11:37:38.721Z,20.52
2022-11-01T11:40:24.722Z,21.02
2022-11-01T11:42:55.178Z,21.15
2022-11-01T11:45:31.185Z,20.42
2022-11-01T11:48:19.457Z,20.32
2022-11-01T11:50:47.082Z,20.42
2022-11-01T11:53:24.583Z,20.75
2022-11-01T11:55:57.990Z,20.96
2022-11-01T11:58:32.943Z,21.22
2022-11-01T12:01:04.933Z,21.44
2022-11-01T12:03:52.563Z,21.37
2022-11-01T12:06:26.964Z,21.53
2022-11-01T12:08:59.492Z,21.67
2022-11-01T12:11:46.916Z,21.58
2022-11-01T12:14:25.712Z,22.03
2022-11-01T12:16:53.283Z,22.45
2022-11-01T12:19:27.516Z,22.25
2022-11-01T12:22:04.374Z,22.40
2022-11-01T12:24:35.738Z,22.70
2022-11-01T12:27:09.439Z,22.64
2022-11-01T12:29:47.491Z,22.71
2022-11-01T12:32:30.470Z,22.50
2022-11-01T12:35:07.500Z,22.66
2022-11-01T12:37:47.015Z,22.02
2022-11-01T12:40:29.904Z,22.30
2022-11-01T12:43:13.080Z,22.60
2022-11-01T12:45:56.438Z,22.99
2022-11-01T12:48:33.588Z,23.46
2022-11-01T12:51:12.480Z,23.53
2022-11-01T12:54:15.310Z,24.00
2022-11-01T12:56:43.027Z,24.41
2022-11-01T12:59:13.852Z,23.95
2022-11-01T13:01:50.934Z,23.38
2022-11-01T13:04:28.883Z,23.04
2022-11-01T13:07:07.551Z,22.56
2022-11-01T13:10:05.073Z,22.22
2022-11-01T13:12:42.327Z,22.09
2022-11-01T13:15:28.365Z,22.23
2022-11-01T13:18:12.267Z,22.14
2022-11-01T13:20:49.989Z,22.01
2022-11-01T13:23:48.551Z,21.95
2022-11-01T13:26:41.371Z,21.88
2022-11-01T13:29:21.710Z,21.85
2022-11-01T13:31:52.398Z,21.74
2022-11-01T13:34:37.428Z,21.72
2022-11-01T13:37:27.311Z,21.94
2022-11-01T13:40:03.991Z,21.93
2022-11-01T13:42:38.973Z,21.94
2022-11-01T13:45:12.508Z,21.79
2022-11-01T13:48:06.163Z,21.74
2022-11-01T13:51:10.965Z,21.75
2022-11-01T13:53:49.529Z,21.90
2022-11-01T13:56:46.458Z,21.68
2022-11-01T13:59:44.739Z,21.73
2022-11-01T14:02:28.187Z,21.68
2022-11-01T14:05:02.479Z,21.66
2022-11-01T14:07:53.614Z,21.66
2022-11-01T14:10:48.567Z,21.55
2022-11-01T14:13:19.045Z,21.31
2022-11-01T14:16:16.660Z,21.29
2022-11-01T14:19:02.833Z,21.13
2022-11-01T14:21:44.303Z,20.73
2022-11-01T14:24:22.536Z,21.01
2022-11-01T14:27:05.041Z,21.03
2022-11-01T14:29:36.163Z,20.83
2022-11-01T14:32:04.629Z,20.80
2022-11-01T14:34:35.842Z,20.78
2022-11-01T14:37:14.692Z,20.78
2022-11-01T14:39:59.564Z,20.55
2022-11-01T14:42:37.273Z,20.54
2022-11-01T14:45:24.945Z,20.56
2022-11-01T14:47:56.405Z,20.58
2022-11-01T14:50:45.011Z,20.51
2022-11-01T14:53:24.431Z,20.60
2022-11-01T14:56:05.919Z,20.54
2022-11-01T14:58:33.564Z,20.40
2022-11-01T15:01:12.727Z,20.46
2022-11-01T15:03:46.423Z,20.36
2022-11-01T15:06:22.885Z,20.40
2022-11-01T15:08:50.739Z,20.43
2022-11-01T15:11:18.852Z,20.44
2022-11-01T15:13:46.822Z,20.37
2022-11-01T15:16:16.447Z,20.32
2022-11-01T15:18:50.147Z,20.34
2022-11-01T15:21:25.535Z,20.10
2022-11-01T15:23:57.605Z,20.05
2022-11-01T15:26:29.900Z,20.00
2022-11-01T15:29:01.873Z,20.04
2022-11-01T15:31:31.097Z,19.87
2022-11-01T15:34:02.330Z,19.90
2022-11-01T15:36:35.964Z,19.90
2022-11-01T15:39:15.352Z,19.66
2022-11-01T15:41:42.932Z,19.57
2022-11-01T15:44:24.890Z,19.56
2022-11-01T15:46:59.247Z,19.60
2022-11-01T15:49:32.792Z,19.54
2022-11-01T15:52:02.915Z,19.51
2022-11-01T15:54:36.713Z,19.55
2022-11-01T15:57:13.084Z,19.47
2022-11-01T16:00:23.080Z,19.37
2022-11-01T16:02:56.696Z,19.19
2022-11-01T16:05:26.700Z,19.09
2022-11-01T16:07:54.722Z,19.09
2022-11-01T16:10:25.715Z,19.07
2022-11-01T16:12:54.419Z,19.07
2022-11-01T16:15:24.190Z,19.02
2022-11-01T16:17:55.780Z,18.98
2022-11-01T16:20:34.101Z,18.92
2022-11-01T16:23:04.368Z,18.99
2022-11-01T16:25:34.710Z,19.00
2022-11-01T16:28:10.178Z,19.01
2022-11-01T16:30:49.934Z,18.85
2022-11-01T16:33:36.941Z,18.83
2022-11-01T16:36:38.047Z,18.77
2022-11-01T16:39:25.574Z,18.74
2022-11-01T16:41:53.810Z,18.52
2022-11-01T16:44:22.448Z,18.56
2022-11-01T16:46:50.290Z,18.43
2022-11-01T16:49:23.239Z,18.37
2022-11-01T16:51:53.302Z,18.30
2022-11-01T16:54:21.271Z,18.28
2022-11-01T16:56:54.764Z,18.19
2022-11-01T16:59:38.207Z,18.14
2022-11-01T17:02:17.734Z,18.06
2022-11-01T17:04:49.794Z,18.06
2022-11-01T17:07:17.719Z,18.11
2022-11-01T17:09:48.402Z,18.16
2022-11-01T17:12:16.411Z,18.13
2022-11-01T17:14:45.895Z,18.07
2022-11-01T17:17:17.209Z,18.08
2022-11-01T17:19:49.217Z,18.08
2022-11-01T17:22:20.905Z,18.03
2022-11-01T17:24:48.729Z,18.00
2022-11-01T17:27:18.622Z,17.92
2022-11-01T17:29:46.297Z,17.80
2022-11-01T17:32:14.754Z,17.76
2022-11-01T17:34:42.347Z,17.84
2022-11-01T17:37:17.140Z,17.95
2022-11-01T17:39:44.809Z,17.85
2022-11-01T17:42:12.358Z,17.68
2022-11-01T17:44:40.268Z,17.63
2022-11-01T17:47:13.716Z,17.68
2022-11-01T17:49:41.668Z,17.70
2022-11-01T17:52:09.251Z,17.76
2022-11-01T17:54:37.435Z,17.76
2022-11-01T17:57:05.599Z,17.58
2022-11-01T17:59:33.587Z,17.53
2022-11-01T18:02:02.290Z,17.59
2022-11-01T18:04:35.517Z,17.53
2022-11-01T18:07:06.555Z,17.59
2022-11-01T18:09:34.641Z,17.66
2022-11-01T18:12:02.755Z,17.65
2022-11-01T18:14:46.934Z,17.67
2022-11-01T18:17:49.043Z,17.65
2022-11-01T18:20:30.082Z,17.60
2022-11-01T18:23:03.522Z,17.56
2022-11-01T18:25:37.155Z,17.60
2022-11-01T18:28:13.561Z,17.64
2022-11-01T18:30:47.576Z,17.62
2022-11-01T18:33:19.391Z,17.63
2022-11-01T18:35:54.578Z,17.63
2022-11-01T18:38:41.777Z,17.58
2022-11-01T18:41:13.599Z,17.61
2022-11-01T18:43:43.185Z,17.55
2022-11-01T18:46:24.959Z,17.51
2022-11-01T18:49:00.167Z,17.42
2022-11-01T18:51:34.691Z,17.42
2022-11-01T18:54:04.906Z,17.29
2022-11-01T18:56:32.825Z,17.21
2022-11-01T18:59:01.803Z,17.20
2022-11-01T19:01:34.327Z,17.10
2022-11-01T19:04:11.616Z,16.86
2022-11-01T19:06:39.113Z,16.68
2022-11-01T19:09:21.406Z,16.70
2022-11-01T19:11:57.673Z,16.50
2022-11-01T19:14:25.582Z,16.64
2022-11-01T19:16:54.129Z,16.59
2022-11-01T19:19:21.950Z,16.54
2022-11-01T19:21:49.498Z,16.51
2022-11-01T19:24:39.867Z,16.31
2022-11-01T19:27:25.381Z,16.34
2022-11-01T19:29:57.914Z,16.29
2022-11-01T19:32:26.744Z,16.21
2022-11-01T19:34:55.287Z,16.16
2022-11-01T19:37:33.073Z,16.08
2022-11-01T19:40:09.964Z,16.01
2022-11-01T19:42:39.186Z,15.90
2022-11-01T19:45:09.404Z,15.92
2022-11-01T19:47:40.266Z,15.80
2022-11-01T19:50:22.145Z,15.80
2022-11-01T19:52:56.858Z,15.71
2022-11-01T19:55:36.803Z,15.63
2022-11-01T19:58:25.028Z,15.66
2022-11-01T20:01:03.441Z,15.62
2022-11-01T20:03:41.795Z,15.57
2022-11-01T20:06:46.760Z,15.52
2022-11-01T20:09:34.236Z,15.55
2022-11-01T20:12:02.904Z,15.49
2022-11-01T20:14:33.343Z,15.45
2022-11-01T20:17:01.666Z,15.39
2022-11-01T20:19:31.207Z,15.42
2022-11-01T20:21:59.422Z,15.37
2022-11-01T20:24:27.568Z,15.36
2022-11-01T20:26:55.542Z,15.43
2022-11-01T20:29:23.933Z,15.38
2022-11-01T20:31:51.917Z,15.28
2022-11-01T20:34:20.648Z,15.26
2022-11-01T20:37:08.090Z,15.24
2022-11-01T20:39:36.487Z,15.25
2022-11-01T20:42:04.271Z,15.22
2022-11-01T20:44:32.276Z,15.27
2022-11-01T20:46:59.750Z,15.23
2022-11-01T20:49:28.165Z,15.15
2022-11-01T20:52:03.892Z,15.10
2022-11-01T20:54:41.635Z,15.07
2022-11-01T20:57:24.757Z,15.05
2022-11-01T20:59:56.445Z,15.04
2022-11-01T21:02:24.539Z,15.02
2022-11-01T21:05:19.877Z,15.04
2022-11-01T21:07:48.194Z,14.96
2022-11-01T21:10:36.682Z,14.93
2022-11-01T21:13:32.760Z,14.91
2022-11-01T21:16:02.307Z,14.87
2022-11-01T21:18:29.776Z,14.80
2022-11-01T21:20:59.117Z,14.81
2022-11-01T21:23:32.097Z,14.86
2022-11-01T21:26:11.691Z,14.89
2022-11-01T21:28:43.709Z,14.91
2022-11-01T21:31:14.579Z,14.86
2022-11-01T21:33:49.089Z,14.83
2022-11-01T21:36:29.516Z,14.90
2022-11-01T21:39:01.320Z,14.91
2022-11-01T21:41:33.907Z,14.85
2022-11-01T21:44:26.384Z,14.90
2022-11-01T21:47:19.601Z,14.84
2022-11-01T21:49:47.809Z,14.73
2022-11-01T21:52:15.744Z,14.73
2022-11-01T21:54:44.263Z,14.69
2022-11-01T21:57:13.276Z,14.58
2022-11-01T21:59:41.719Z,14.56
2022-11-01T22:02:12.473Z,14.63
2022-11-01T22:04:40.559Z,14.67
2022-11-01T22:07:10.092Z,14.60
2022-11-01T22:09:39.136Z,14.64
2022-11-01T22:12:07.878Z,14.53
2022-11-01T22:14:35.957Z,14.52
2022-11-01T22:17:03.496Z,14.51
2022-11-01T22:19:31.420Z,14.43
2022-11-01T22:22:00.061Z,14.26
2022-11-01T22:24:28.522Z,14.20
2022-11-01T22:26:56.037Z,14.21
2022-11-01T22:29:23.638Z,14.22
2022-11-01T22:31:52.090Z,14.12
2022-11-01T22:34:20.050Z,14.13
2022-11-01T22:36:48.632Z,14.06
2022-11-01T22:39:21.023Z,14.06
2022-11-01T22:41:49.122Z,13.94
2022-11-01T22:44:30.505Z,13.93
2022-11-01T22:47:03.254Z,13.94
2022-11-01T22:49:34.187Z,14.03
2022-11-01T22:52:13.142Z,14.08
2022-11-01T22:54:48.449Z,14.10
2022-11-01T22:57:21.473Z,14.06
2022-11-01T22:59:57.655Z,14.12
2022-11-01T23:02:31.133Z,14.18
2022-11-01T23:05:08.118Z,14.24
2022-11-01T23:07:47.838Z,14.27
2022-11-01T23:10:30.823Z,14.20
2022-11-01T23:13:25.202Z,14.17
2022-11-01T23:16:02.185Z,14.15
2022-11-01T23:18:34.077Z,14.10
2022-11-01T23:21:06.465Z,13.99
2022-11-01T23:23:40.741Z,13.92
2022-11-01T23:26:09.337Z,13.95
2022-11-01T23:28:41.857Z,13.97
2022-11-01T23:31:09.663Z,13.93
2022-11-01T23:33:45.753Z,13.90
2022-11-01T23:36:16.413Z,13.84
2022-11-01T23:38:48.605Z,13.63
2022-11-01T23:41:38.158Z,13.70
2022-11-01T23:44:40.676Z,13.69
2022-11-01T23:47:14.471Z,13.67
2022-11-01T23:49:42.514Z,13.67
2022-11-01T23:52:27.792Z,13.65
2022-11-01T23:54:55.422Z,13.64
2022-11-01T23:57:23.257Z,13.55
2022-11-01T23:59:51.312Z,13.55
